Time;durP1;ratioP1;P1;durP2;ratioP2;P2;SDS_P1;SDS_P2;PMS_P1;PMS_P2;Temp;Humidity;BMP_temperature;BMP_pressure;BME280_temperature;BME280_humidity;BME280_pressure;Samples;Min_cycle;Max_cycle;Signal;HPM_P1;HPM_P2
2022/10/29 00:00:36;;;;;;;4.68;2.55;;;;;;;9.57;61.11;95069.00;5063342;28;20067;-86
2022/10/29 00:03:02;;;;;;;4.80;2.70;;;;;;;9.56;61.17;95075.38;5063351;28;20024;-87
2022/10/29 00:05:27;;;;;;;6.05;2.30;;;;;;;9.52;61.34;95070.88;5063448;28;20084;-87
2022/10/29 00:07:53;;;;;;;4.22;2.30;;;;;;;9.49;61.27;95063.47;5063514;28;20017;-87
2022/10/29 00:10:18;;;;;;;5.93;2.85;;;;;;;9.46;61.23;95064.00;5062780;28;20195;-87
2022/10/29 00:12:44;;;;;;;8.43;2.33;;;;;;;9.42;61.28;95058.44;5063192;28;20027;-88
2022/10/29 00:15:10;;;;;;;4.38;2.38;;;;;;;9.43;61.46;95062.69;5062122;28;20016;-88
2022/10/29 00:17:35;;;;;;;6.07;1.98;;;;;;;9.30;62.04;95050.81;5062970;28;20031;-88
2022/10/29 00:20:01;;;;;;;5.00;2.35;;;;;;;9.31;61.90;95060.38;5063174;28;20252;-90
2022/10/29 00:22:26;;;;;;;7.07;2.85;;;;;;;9.34;61.61;95059.81;5062002;28;20079;-89
2022/10/29 00:24:51;;;;;;;8.00;2.50;;;;;;;9.37;61.87;95053.16;5063072;28;20239;-89
2022/10/29 00:27:17;;;;;;;4.82;1.88;;;;;;;9.30;61.75;95050.81;5063520;28;20017;-89
2022/10/29 00:29:42;;;;;;;10.25;3.08;;;;;;;9.30;61.92;95047.31;5063746;28;20048;-92
2022/10/29 00:32:08;;;;;;;6.13;2.38;;;;;;;9.30;62.11;95044.66;5062643;28;20027;-92
2022/10/29 00:34:35;;;;;;;5.45;2.17;;;;;;;9.28;61.91;95034.31;5063636;28;20040;-91
2022/10/29 00:37:02;;;;;;;3.47;1.70;;;;;;;9.25;62.11;95042.84;5063835;28;20025;-91
2022/10/29 00:39:28;;;;;;;6.93;2.35;;;;;;;9.25;61.86;95032.19;5063647;28;20112;-92
2022/10/29 00:41:54;;;;;;;5.13;1.48;;;;;;;9.24;61.31;95033.28;5063765;28;20029;-92
2022/10/29 00:44:34;;;;;;;4.18;1.88;;;;;;;9.22;61.54;95036.22;5063412;28;20025;-92
2022/10/29 00:47:09;;;;;;;5.28;1.85;;;;;;;9.21;61.24;95041.81;5063030;28;20024;-91
2022/10/29 00:49:35;;;;;;;5.55;2.25;;;;;;;9.20;61.45;95032.25;5064050;28;20048;-92
2022/10/29 00:52:03;;;;;;;4.25;2.10;;;;;;;9.25;61.40;95037.53;5063719;28;20024;-93
2022/10/29 00:54:33;;;;;;;5.50;2.28;;;;;;;9.22;61.49;95028.22;5062421;28;20021;-91
2022/10/29 00:57:05;;;;;;;3.75;1.80;;;;;;;9.19;61.07;95041.28;5063270;28;20029;-91
2022/10/29 00:59:31;;;;;;;4.47;2.40;;;;;;;9.13;61.30;95037.84;5061884;28;20021;-89
2022/10/29 01:01:56;;;;;;;6.80;3.15;;;;;;;9.13;61.56;95040.50;5062894;28;20334;-89
2022/10/29 01:04:23;;;;;;;6.50;2.70;;;;;;;9.14;61.51;95038.63;5063026;28;20029;-90
2022/10/29 01:06:49;;;;;;;5.18;2.20;;;;;;;9.13;61.29;95037.84;5063242;28;20096;-90
2022/10/29 01:09:14;;;;;;;6.25;2.20;;;;;;;9.14;61.63;95031.47;5063259;28;20219;-91
2022/10/29 01:11:48;;;;;;;5.30;2.20;;;;;;;9.17;61.57;95035.44;5063015;28;20043;-90
2022/10/29 01:14:29;;;;;;;4.05;2.05;;;;;;;9.15;61.64;95034.91;5063254;28;20065;-91
2022/10/29 01:17:02;;;;;;;5.78;2.33;;;;;;;9.14;61.68;95022.69;5063275;28;20020;-90
2022/10/29 01:20:01;;;;;;;5.70;2.17;;;;;;;9.12;61.61;95011.53;5063058;28;20029;-89
2022/10/29 01:22:39;;;;;;;6.88;2.40;;;;;;;9.08;61.79;95007.81;5062191;28;20414;-91
2022/10/29 01:25:25;;;;;;;5.15;2.08;;;;;;;9.02;61.83;95007.88;5063024;28;20327;-90
2022/10/29 01:28:35;;;;;;;3.97;1.83;;;;;;;8.98;62.16;94998.06;5061959;28;20052;-91
2022/10/29 01:31:18;;;;;;;5.20;2.20;;;;;;;8.93;62.28;95000.72;5052705;28;20035;-91
2022/10/29 01:33:51;;;;;;;;;;;;;;;8.91;62.30;94995.69;5063421;28;20036;-91
2022/10/29 01:36:35;;;;;;;4.75;1.95;;;;;;;8.79;62.58;95005.84;5063130;28;19964;-91
2022/10/29 01:39:20;;;;;;;4.93;2.58;;;;;;;8.76;62.75;95004.53;5063171;28;20044;-92
2022/10/29 01:41:53;;;;;;;4.75;2.13;;;;;;;8.69;63.05;95006.72;5063268;28;20070;-92
2022/10/29 01:44:27;;;;;;;5.90;2.35;;;;;;;8.68;63.26;95010.41;5063008;28;20306;-91
2022/10/29 01:46:57;;;;;;;5.38;2.33;;;;;;;8.71;63.44;95011.72;5063067;28;20315;-91
2022/10/29 01:49:37;;;;;;;4.85;2.47;;;;;;;8.68;63.18;94999.78;5063432;28;20027;-91
2022/10/29 01:52:05;;;;;;;8.68;3.22;;;;;;;8.69;63.27;95001.41;5063125;28;20044;-91
2022/10/29 01:54:30;;;;;;;8.20;3.65;;;;;;;8.71;63.49;94998.44;5066651;28;20060;-91
2022/10/29 01:56:57;;;;;;;8.77;3.72;;;;;;;8.68;63.69;94999.78;5066685;28;20311;-91
2022/10/29 01:59:27;;;;;;;7.85;4.10;;;;;;;8.72;63.69;95000.03;5066517;28;20021;-91
2022/10/29 02:02:18;;;;;;;11.82;4.25;;;;;;;8.74;63.68;94992.59;5066541;28;20017;-92
2022/10/29 02:05:17;;;;;;;10.50;3.70;;;;;;;8.72;63.11;94994.72;5065449;28;20025;-92
2022/10/29 02:08:03;;;;;;;11.88;4.10;;;;;;;8.68;63.15;94988.38;5066391;28;20307;-92
2022/10/29 02:10:47;;;;;;;9.98;3.38;;;;;;;8.64;63.17;94994.22;5045431;28;20040;-92
2022/10/29 02:13:16;;;;;;;11.52;4.85;;;;;;;8.61;63.39;94992.13;5065173;28;20323;-91
2022/10/29 02:15:49;;;;;;;6.78;2.33;;;;;;;8.58;63.54;94995.31;5065112;28;20060;-91
2022/10/29 02:18:15;;;;;;;6.45;2.10;;;;;;;8.55;63.82;94995.06;5066181;28;20029;-91
2022/10/29 02:20:41;;;;;;;4.60;2.15;;;;;;;8.50;63.78;94987.91;5066239;28;20025;-91
2022/10/29 02:23:07;;;;;;;5.63;2.60;;;;;;;8.43;64.11;94976.78;5066189;28;20029;-92
2022/10/29 02:25:32;;;;;;;8.63;2.42;;;;;;;8.42;64.54;94972.53;5066280;28;20315;-91
2022/10/29 02:27:58;;;;;;;6.18;2.67;;;;;;;8.41;64.62;94973.59;5066475;28;20192;-92
2022/10/29 02:30:24;;;;;;;5.07;1.90;;;;;;;8.40;64.63;94966.66;5066128;28;20311;-92
2022/10/29 02:32:49;;;;;;;5.05;2.50;;;;;;;8.40;64.70;94974.63;5065838;28;20106;-92
2022/10/29 02:35:15;;;;;;;10.85;2.72;;;;;;;8.37;64.72;94978.63;5066128;28;20021;-91
2022/10/29 02:37:40;;;;;;;7.10;3.35;;;;;;;8.34;64.70;94973.06;5065923;28;20276;-91
2022/10/29 02:40:06;;;;;;;4.63;2.55;;;;;;;8.30;64.95;94982.63;5064248;28;20315;-90
2022/10/29 02:42:32;;;;;;;6.15;2.97;;;;;;;8.24;65.06;94987.16;5065590;28;20028;-90
2022/10/29 02:44:58;;;;;;;6.60;2.83;;;;;;;8.17;65.02;94978.69;5065375;28;20029;-90
2022/10/29 02:47:23;;;;;;;11.02;3.78;;;;;;;8.12;65.25;94976.84;5064417;28;20342;-94
2022/10/29 02:49:49;;;;;;;9.05;3.67;;;;;;;8.07;65.87;94978.72;5066079;28;20029;-94
2022/10/29 02:52:17;;;;;;;8.70;4.00;;;;;;;8.03;66.18;94976.59;5065940;28;20025;-94
2022/10/29 02:54:43;;;;;;;8.50;4.03;;;;;;;8.02;66.57;94971.56;5065479;28;20187;-94
2022/10/29 02:57:08;;;;;;;8.25;4.22;;;;;;;8.01;66.78;94978.72;5065758;28;20025;-94
2022/10/29 02:59:34;;;;;;;7.40;4.18;;;;;;;8.03;66.53;94973.94;5065784;28;20048;-94
2022/10/29 03:02:02;;;;;;;6.63;4.00;;;;;;;8.06;66.42;94972.63;5065839;28;20386;-94
2022/10/29 03:04:31;;;;;;;7.80;4.03;;;;;;;8.02;66.46;94966.25;5065228;28;20025;-93
2022/10/29 03:06:57;;;;;;;6.80;3.63;;;;;;;8.00;66.34;94968.38;5064992;28;20024;-94
2022/10/29 03:09:26;;;;;;;7.18;3.80;;;;;;;7.96;66.38;94972.66;5065655;28;20100;-94
2022/10/29 03:11:51;;;;;;;7.65;4.25;;;;;;;7.93;66.81;94973.16;5064127;28;20307;-94
2022/10/29 03:14:19;;;;;;;9.00;3.88;;;;;;;7.91;66.51;94975.28;5065271;28;20032;-94
2022/10/29 03:16:45;;;;;;;9.20;3.70;;;;;;;7.86;66.88;94973.44;5065159;28;20094;-94
2022/10/29 03:19:11;;;;;;;8.50;3.53;;;;;;;7.79;66.91;94965.75;5064947;28;20033;-89
2022/10/29 03:21:39;;;;;;;7.70;4.15;;;;;;;7.76;67.40;94963.63;5065127;28;20025;-92
2022/10/29 03:24:05;;;;;;;9.88;4.93;;;;;;;7.75;67.59;94966.56;5065099;28;20031;-93
2022/10/29 03:26:30;;;;;;;9.68;5.15;;;;;;;7.78;67.84;94953.56;5065054;28;20270;-93
2022/10/29 03:28:56;;;;;;;8.55;4.63;;;;;;;7.79;67.90;94955.13;5066687;28;20203;-92
2022/10/29 03:31:21;;;;;;;8.65;4.13;;;;;;;7.77;67.66;94959.91;5066446;28;20394;-93
2022/10/29 03:33:47;;;;;;;13.82;4.57;;;;;;;7.76;67.61;94958.34;5064194;28;20215;-92
2022/10/29 03:36:12;;;;;;;9.80;4.40;;;;;;;7.77;67.63;94953.81;5064102;28;20310;-88
2022/10/29 03:38:38;;;;;;;8.27;3.97;;;;;;;7.76;67.27;94947.72;5063572;28;20200;-87
2022/10/29 03:41:09;;;;;;;6.60;3.85;;;;;;;7.71;67.37;94954.88;5063750;28;20127;-87
2022/10/29 03:43:38;;;;;;;7.93;3.85;;;;;;;7.70;67.34;94954.09;5063560;28;20020;-87
2022/10/29 03:46:04;;;;;;;10.52;4.22;;;;;;;7.72;67.74;94948.53;5063529;28;20021;-87
2022/10/29 03:48:29;;;;;;;15.68;4.43;;;;;;;7.64;67.95;94948.00;5063371;28;20027;-87
2022/10/29 03:51:04;;;;;;;9.13;3.97;;;;;;;7.66;67.82;94953.03;5062961;28;20050;-90
2022/10/29 03:53:30;;;;;;;11.82;5.38;;;;;;;7.67;68.22;94945.88;5064021;28;20021;-89
2022/10/29 03:55:56;;;;;;;17.73;5.95;;;;;;;7.62;68.56;94942.16;5063201;28;20120;-90
2022/10/29 03:58:23;;;;;;;13.63;5.32;;;;;;;7.64;69.08;94955.16;5063988;28;20036;-91
2022/10/29 04:01:03;;;;;;;9.30;4.65;;;;;;;7.63;68.72;94945.59;5064124;28;20032;-91
2022/10/29 04:03:31;;;;;;;13.30;5.05;;;;;;;7.62;68.61;94954.63;5064178;28;20049;-91
2022/10/29 04:05:57;;;;;;;11.80;4.70;;;;;;;7.62;68.62;94949.34;5064125;28;20084;-92
2022/10/29 04:08:24;;;;;;;10.85;4.90;;;;;;;7.60;68.48;94960.19;5063998;28;20021;-91
2022/10/29 04:10:50;;;;;;;12.90;4.07;;;;;;;7.60;68.49;94954.09;5063994;28;20025;-91
2022/10/29 04:13:16;;;;;;;5.80;3.80;;;;;;;7.58;68.42;94967.63;5064042;28;20028;-91
2022/10/29 04:15:42;;;;;;;13.15;4.63;;;;;;;7.54;68.35;94971.88;5063254;28;20021;-91
2022/10/29 04:18:09;;;;;;;11.55;4.72;;;;;;;7.52;68.48;94973.22;5063803;28;20036;-91
2022/10/29 04:20:35;;;;;;;9.55;4.50;;;;;;;7.48;68.82;94962.34;5065158;28;20023;-91
2022/10/29 04:23:01;;;;;;;7.97;4.40;;;;;;;7.45;69.15;94970.84;5063719;28;20024;-93
2022/10/29 04:25:30;;;;;;;9.65;4.13;;;;;;;7.43;69.16;94970.31;5063799;28;20017;-92
2022/10/29 04:27:56;;;;;;;9.32;4.03;;;;;;;7.39;68.97;94967.38;5063893;28;20047;-93
2022/10/29 04:30:26;;;;;;;8.02;3.67;;;;;;;7.35;69.04;94971.63;5063919;28;20016;-93
2022/10/29 04:32:56;;;;;;;10.35;4.43;;;;;;;7.37;68.91;94982.78;5063837;28;20044;-93
2022/10/29 04:35:21;;;;;;;7.80;3.90;;;;;;;7.38;68.78;94981.69;5063640;28;20013;-92
2022/10/29 04:37:47;;;;;;;9.52;3.80;;;;;;;7.34;68.65;94988.59;5063540;28;20059;-93
2022/10/29 04:40:12;;;;;;;9.68;3.60;;;;;;;7.29;68.88;94977.22;5063583;28;20084;-93
2022/10/29 04:42:38;;;;;;;7.40;3.60;;;;;;;7.23;68.82;94982.50;5063841;28;20232;-94
2022/10/29 04:45:05;;;;;;;9.35;3.80;;;;;;;7.18;69.09;94965.78;5063241;28;20028;-88
2022/10/29 04:47:30;;;;;;;15.85;4.30;;;;;;;7.13;69.23;94971.09;5062717;28;20052;-88
2022/10/29 04:49:56;;;;;;;10.45;4.55;;;;;;;7.09;69.55;94976.13;5062508;28;20036;-88
2022/10/29 04:52:22;;;;;;;9.25;4.63;;;;;;;7.10;69.99;94976.91;5062556;28;20311;-87
2022/10/29 04:54:47;;;;;;;8.48;4.35;;;;;;;7.12;70.08;94972.13;5062514;28;20032;-87
2022/10/29 04:57:13;;;;;;;8.40;4.93;;;;;;;7.13;70.23;94976.38;5062606;28;20032;-89
2022/10/29 04:59:38;;;;;;;15.20;4.93;;;;;;;7.18;70.47;94979.03;5062877;28;20033;-86
2022/10/29 05:02:04;;;;;;;10.43;5.10;;;;;;;7.21;70.61;94983.81;5062818;28;20389;-88
2022/10/29 05:04:29;;;;;;;15.00;4.65;;;;;;;7.25;71.17;94984.88;5062501;28;20032;-86
2022/10/29 05:06:55;;;;;;;11.70;5.20;;;;;;;7.29;71.18;94983.28;5062501;28;20059;-88
2022/10/29 05:09:20;;;;;;;11.88;5.70;;;;;;;7.33;71.11;94971.09;5062534;28;20089;-88
2022/10/29 05:11:46;;;;;;;10.27;6.07;;;;;;;7.35;70.61;94971.63;5063232;28;20032;-89
2022/10/29 05:14:11;;;;;;;9.00;5.53;;;;;;;7.40;70.66;94970.81;5062923;28;20017;-89
2022/10/29 05:16:37;;;;;;;9.55;5.30;;;;;;;7.46;70.42;94971.63;5062881;28;20020;-87
2022/10/29 05:19:05;;;;;;;13.38;5.20;;;;;;;7.46;70.34;94974.28;5062886;28;20314;-88
2022/10/29 05:21:31;;;;;;;11.90;5.47;;;;;;;7.51;70.12;94976.91;5062578;28;20048;-88
2022/10/29 05:23:57;;;;;;;15.05;5.80;;;;;;;7.54;69.99;94971.09;5063451;28;20138;-93
2022/10/29 05:26:23;;;;;;;14.00;5.60;;;;;;;7.58;69.78;94985.41;5065189;28;20338;-94
2022/10/29 05:28:51;;;;;;;12.77;5.97;;;;;;;7.60;69.85;94976.13;5068296;28;20333;-92
2022/10/29 05:31:17;;;;;;;8.60;5.60;;;;;;;7.66;70.05;94984.88;5066702;28;20040;-88
2022/10/29 05:33:43;;;;;;;19.08;5.15;;;;;;;7.69;70.01;94987.00;5066655;28;20059;-89
2022/10/29 05:36:09;;;;;;;14.45;5.65;;;;;;;7.73;70.09;94980.09;5066845;28;20025;-89
2022/10/29 05:38:34;;;;;;;14.07;6.25;;;;;;;7.82;70.24;94991.75;5066625;28;20025;-89
2022/10/29 05:41:00;;;;;;;10.68;5.95;;;;;;;7.89;69.90;94982.72;5066574;28;20052;-90
2022/10/29 05:43:26;;;;;;;17.73;5.82;;;;;;;7.93;69.87;94983.78;5065647;28;20105;-89
2022/10/29 05:45:52;;;;;;;11.95;6.38;;;;;;;7.96;69.94;94985.91;5066568;28;20044;-89
2022/10/29 05:48:17;;;;;;;14.10;6.38;;;;;;;8.02;69.87;94984.84;5066871;28;20028;-93
2022/10/29 05:50:43;;;;;;;12.07;5.95;;;;;;;8.13;69.71;94994.34;5066712;28;20020;-93
2022/10/29 05:53:11;;;;;;;13.30;6.68;;;;;;;8.23;69.56;94994.34;5067020;28;20025;-93
2022/10/29 05:55:37;;;;;;;19.20;6.43;;;;;;;8.33;69.48;94996.16;5065692;28;20047;-90
2022/10/29 05:58:06;;;;;;;19.52;6.60;;;;;;;8.42;68.81;94996.44;5066301;28;20044;-90
2022/10/29 06:00:34;;;;;;;28.92;9.80;;;;;;;8.48;68.69;94995.34;5066568;28;20048;-90
2022/10/29 06:03:00;;;;;;;24.95;9.90;;;;;;;8.55;68.12;94993.22;5066526;28;20021;-90
2022/10/29 06:05:26;;;;;;;21.60;9.00;;;;;;;8.57;67.99;94998.25;5065881;28;20028;-90
2022/10/29 06:07:59;;;;;;;21.85;9.40;;;;;;;8.61;67.87;95009.94;5065366;28;20024;-89
2022/10/29 06:10:27;;;;;;;26.60;9.18;;;;;;;8.66;67.71;95001.13;5066465;28;20021;-90
2022/10/29 06:12:52;;;;;;;48.20;10.75;;;;;;;8.73;67.64;95006.94;5066429;28;20028;-90
2022/10/29 06:15:18;;;;;;;36.08;11.45;;;;;;;8.78;67.41;95005.06;5066104;28;20052;-88
2022/10/29 06:17:44;;;;;;;28.42;10.75;;;;;;;8.80;67.45;95018.88;5065744;28;20032;-88
2022/10/29 06:20:12;;;;;;;25.35;9.38;;;;;;;8.85;67.69;95031.34;5064712;28;20183;-89
2022/10/29 06:22:37;;;;;;;37.00;8.75;;;;;;;8.93;67.30;95014.81;5064562;28;20307;-89
2022/10/29 06:25:04;;;;;;;34.22;9.45;;;;;;;8.99;67.20;95010.28;5065774;28;20021;-89
2022/10/29 06:27:34;;;;;;;34.08;8.93;;;;;;;9.06;67.07;95018.75;5065821;28;20017;-88
2022/10/29 06:29:59;;;;;;;24.20;9.25;;;;;;;9.11;67.04;95017.91;5064943;28;20025;-87
2022/10/29 06:32:25;;;;;;;25.95;8.88;;;;;;;9.19;66.64;95009.38;5065474;28;20128;-88
2022/10/29 06:34:50;;;;;;;36.80;9.13;;;;;;;9.31;66.51;95004.50;5065367;28;20021;-86
2022/10/29 06:37:16;;;;;;;36.95;9.98;;;;;;;9.38;66.60;94997.00;5065008;28;20016;-87
2022/10/29 06:39:41;;;;;;;29.75;10.75;;;;;;;9.46;66.75;95002.78;5064887;28;20016;-91
2022/10/29 06:42:07;;;;;;;37.33;11.57;;;;;;;9.44;66.77;95001.22;5065703;28;20021;-90
2022/10/29 06:44:32;;;;;;;27.83;9.52;;;;;;;9.48;66.14;94995.31;5065471;28;20063;-94
2022/10/29 06:46:58;;;;;;;32.72;10.57;;;;;;;9.53;66.20;95001.41;5065779;28;20040;-91
2022/10/29 06:49:23;;;;;;;35.15;10.57;;;;;;;9.59;66.34;95010.16;5066576;28;20024;-91
2022/10/29 06:51:49;;;;;;;25.63;9.80;;;;;;;9.55;65.75;95006.47;5065791;28;20032;-91
2022/10/29 06:54:14;;;;;;;26.77;10.50;;;;;;;9.55;65.61;95007.25;5065286;28;20012;-87
2022/10/29 06:56:40;;;;;;;39.45;11.98;;;;;;;9.61;66.77;95010.69;5064628;28;20082;-75
2022/10/29 06:59:05;;;;;;;23.25;10.25;;;;;;;9.63;65.90;95016.50;5063471;28;20219;-75
2022/10/29 07:01:32;;;;;;;28.48;11.20;;;;;;;9.63;65.81;95000.53;5064497;28;20362;-76
2022/10/29 07:03:58;;;;;;;28.27;11.60;;;;;;;9.67;65.80;95016.72;5064299;28;20032;-77
2022/10/29 07:06:24;;;;;;;27.83;11.70;;;;;;;9.79;65.35;95020.66;5064578;28;20092;-76
2022/10/29 07:08:49;;;;;;;28.48;11.82;;;;;;;9.83;64.73;95016.34;5064256;28;20028;-76
2022/10/29 07:11:15;;;;;;;19.33;10.50;;;;;;;9.86;64.70;95016.84;5064444;28;20373;-77
2022/10/29 07:13:41;;;;;;;23.02;10.02;;;;;;;9.92;64.36;95026.41;5064210;28;20020;-76
2022/10/29 07:16:06;;;;;;;21.83;11.05;;;;;;;9.98;64.45;95030.59;5064079;28;20021;-74
2022/10/29 07:18:32;;;;;;;21.27;9.93;;;;;;;9.98;63.90;95030.59;5064089;28;20016;-76
2022/10/29 07:20:57;;;;;;;28.02;11.98;;;;;;;10.03;64.02;95022.56;5064487;28;20092;-76
2022/10/29 07:23:23;;;;;;;34.93;11.77;;;;;;;10.10;63.55;95033.69;5063882;28;20055;-76
2022/10/29 07:25:51;;;;;;;28.35;10.48;;;;;;;10.16;62.97;95027.22;5064162;28;20043;-76
2022/10/29 07:28:21;;;;;;;32.15;12.70;;;;;;;10.20;63.04;95038.13;5064078;28;20021;-76
2022/10/29 07:30:51;;;;;;;27.50;12.02;;;;;;;10.30;62.64;95026.59;5064105;28;20040;-76
2022/10/29 07:33:17;;;;;;;36.80;11.20;;;;;;;10.33;62.60;95031.38;5063923;28;20093;-76
2022/10/29 07:35:44;;;;;;;27.52;11.82;;;;;;;10.39;62.70;95033.69;5063727;28;20020;-76
2022/10/29 07:38:11;;;;;;;21.95;12.23;;;;;;;10.50;62.65;95025.56;5063725;28;20021;-76
2022/10/29 07:40:46;;;;;;;32.40;11.98;;;;;;;10.59;62.38;95022.00;5063516;28;20279;-76
2022/10/29 07:43:11;;;;;;;27.85;11.80;;;;;;;10.69;62.57;95022.97;5063713;28;20089;-86
2022/10/29 07:45:37;;;;;;;33.65;11.48;;;;;;;10.78;62.31;95018.59;5063349;28;20025;-86
2022/10/29 07:48:06;;;;;;;36.22;12.63;;;;;;;10.87;62.09;95026.75;5063848;28;20092;-88
2022/10/29 07:50:32;;;;;;;28.95;11.30;;;;;;;10.91;61.59;95015.25;5061909;28;20261;-90
2022/10/29 07:53:01;;;;;;;27.10;11.95;;;;;;;10.99;61.55;95011.13;5064892;28;20024;-90
2022/10/29 07:55:27;;;;;;;26.77;11.73;;;;;;;11.10;61.09;95011.78;5064231;28;20017;-92
2022/10/29 07:57:57;;;;;;;28.63;10.93;;;;;;;11.19;60.74;95015.38;5064387;28;20024;-91
2022/10/29 08:00:24;;;;;;;35.38;12.27;;;;;;;11.26;60.36;95012.38;5064109;28;20107;-91
2022/10/29 08:02:53;;;;;;;28.55;11.35;;;;;;;11.33;60.28;95021.59;5064215;28;20017;-91
2022/10/29 08:05:20;;;;;;;32.63;11.82;;;;;;;11.40;60.07;95022.03;5064372;28;20337;-92
2022/10/29 08:07:45;;;;;;;35.30;12.60;;;;;;;11.50;60.04;95020.28;5064105;28;20022;-91
2022/10/29 08:10:11;;;;;;;26.73;11.93;;;;;;;11.51;59.55;95017.34;5064030;28;20062;-92
2022/10/29 08:12:36;;;;;;;30.50;12.07;;;;;;;11.57;59.78;95007.38;5063776;28;20040;-92
2022/10/29 08:15:02;;;;;;;25.90;11.55;;;;;;;11.70;59.40;95011.16;5064036;28;20009;-90
2022/10/29 08:17:31;;;;;;;35.72;12.52;;;;;;;11.72;59.07;95007.13;5064120;28;20036;-91
2022/10/29 08:19:57;;;;;;;34.15;12.90;;;;;;;11.83;58.79;95000.53;5064052;28;20095;-91
2022/10/29 08:22:22;;;;;;;38.40;12.40;;;;;;;11.90;58.72;95002.84;5064033;28;20023;-91
2022/10/29 08:24:48;;;;;;;29.95;11.77;;;;;;;12.00;58.55;94999.22;5062432;28;20029;-91
2022/10/29 08:27:14;;;;;;;26.75;12.90;;;;;;;12.10;58.65;94998.25;5063653;28;20024;-91
2022/10/29 08:29:39;;;;;;;28.77;12.93;;;;;;;12.14;58.76;94993.91;5063563;28;20021;-91
2022/10/29 08:32:05;;;;;;;26.35;11.95;;;;;;;12.30;58.70;94989.88;5063890;28;20028;-91
2022/10/29 08:34:30;;;;;;;25.92;12.15;;;;;;;12.42;58.60;94987.50;5062522;28;20108;-92
2022/10/29 08:36:56;;;;;;;38.85;12.70;;;;;;;12.51;58.28;94984.91;5063800;28;20067;-91
2022/10/29 08:39:21;;;;;;;34.15;12.57;;;;;;;12.63;57.87;94992.44;5063542;28;20021;-92
2022/10/29 08:42:05;;;;;;;31.90;13.60;;;;;;;12.76;57.14;94988.19;5063491;28;20025;-93
2022/10/29 08:44:57;;;;;;;28.40;12.05;;;;;;;12.91;56.98;94993.22;5064039;28;20048;-93
2022/10/29 08:47:23;;;;;;;17.52;10.60;;;;;;;12.94;56.35;94995.28;5053979;28;20040;-93
2022/10/29 08:50:39;;;;;;;26.48;11.15;;;;;;;13.02;56.08;94993.78;5062495;28;20052;-92
2022/10/29 08:53:39;;;;;;;;;;;;;;;;;;;;;
2022/10/29 08:56:11;;;;;;;26.52;10.60;;;;;;;13.25;54.39;94982.06;5021068;28;20066;-92
2022/10/29 08:58:43;;;;;;;24.42;11.32;;;;;;;13.32;54.57;94978.19;5054503;28;20064;-94
2022/10/29 09:01:13;;;;;;;23.88;9.82;;;;;;;13.41;54.25;94979.84;5069725;28;20020;-95
2022/10/29 09:03:39;;;;;;;22.45;9.88;;;;;;;13.50;54.42;94977.22;5070762;28;20020;-90
2022/10/29 09:06:16;;;;;;;27.00;11.30;;;;;;;13.66;53.26;94966.94;5069284;28;20021;-83
2022/10/29 09:08:57;;;;;;;21.75;9.85;;;;;;;13.82;52.42;94973.53;5069193;28;20021;-84
2022/10/29 09:11:42;;;;;;;25.00;9.23;;;;;;;13.97;51.77;94984.94;5069093;28;20029;-81
2022/10/29 09:14:27;;;;;;;31.33;9.77;;;;;;;14.07;51.85;94979.34;5067723;28;20071;-76
2022/10/29 09:17:20;;;;;;;22.00;8.32;;;;;;;14.15;52.34;94975.91;5068012;28;20253;-75
2022/10/29 09:19:48;;;;;;;32.78;11.38;;;;;;;14.27;51.14;94983.38;5068920;28;20092;-75
2022/10/29 09:22:22;;;;;;;19.30;9.07;;;;;;;14.42;50.17;94974.91;5069018;28;20341;-75
2022/10/29 09:25:03;;;;;;;23.67;8.43;;;;;;;14.47;49.93;94967.81;5068866;28;20021;-75
2022/10/29 09:27:36;;;;;;;17.85;9.48;;;;;;;14.55;49.38;94959.81;5068628;28;20035;-75
2022/10/29 09:30:08;;;;;;;29.40;8.35;;;;;;;14.64;49.39;94960.66;5067674;28;20043;-75
2022/10/29 09:32:49;;;;;;;27.90;9.25;;;;;;;14.74;48.87;94958.81;5067670;28;20227;-75
2022/10/29 09:35:17;;;;;;;17.77;7.25;;;;;;;14.79;48.80;94961.31;5068942;28;20032;-75
2022/10/29 09:37:42;;;;;;;22.35;8.57;;;;;;;14.84;48.68;94961.19;5067822;28;20058;-76
2022/10/29 09:40:23;;;;;;;26.65;8.52;;;;;;;14.96;49.39;94953.31;5066907;28;20040;-76
2022/10/29 09:42:49;;;;;;;19.02;8.63;;;;;;;15.14;47.98;94953.31;5067078;28;20033;-75
2022/10/29 09:45:19;;;;;;;18.42;7.38;;;;;;;15.20;47.77;94957.44;5066928;28;20418;-75
2022/10/29 09:48:17;;;;;;;14.13;7.88;;;;;;;15.32;47.32;94941.47;5065691;28;20307;-76
2022/10/29 09:51:02;;;;;;;20.88;7.50;;;;;;;15.34;47.10;94950.00;5066914;28;20028;-76
2022/10/29 09:53:28;;;;;;;14.35;7.20;;;;;;;15.33;47.45;94940.38;5068408;28;20042;-76
2022/10/29 09:55:53;;;;;;;18.33;6.90;;;;;;;15.47;48.05;94942.91;5068772;28;20196;-76
2022/10/29 09:58:22;;;;;;;17.77;6.95;;;;;;;15.59;47.40;94926.13;5068691;28;20023;-76
2022/10/29 10:00:48;;;;;;;16.85;6.60;;;;;;;15.75;46.63;94924.56;5068459;28;20017;-76
2022/10/29 10:03:28;;;;;;;11.77;6.07;;;;;;;15.86;46.63;94924.25;5068624;28;20322;-76
2022/10/29 10:06:01;;;;;;;23.05;5.45;;;;;;;15.96;46.01;94915.81;5068761;28;20372;-76
2022/10/29 10:08:27;;;;;;;10.07;4.88;;;;;;;16.02;45.96;94925.28;5068828;28;20131;-76
2022/10/29 10:10:55;;;;;;;12.90;5.93;;;;;;;16.03;46.19;94916.88;5068766;28;20374;-76
2022/10/29 10:13:23;;;;;;;30.20;6.70;;;;;;;16.19;46.31;94906.38;5065388;28;20306;-76
2022/10/29 10:15:55;;;;;;;12.73;5.80;;;;;;;16.37;45.81;94904.41;5065212;28;20021;-76
2022/10/29 10:18:39;;;;;;;14.35;5.50;;;;;;;16.46;44.70;94901.69;5065620;28;20230;-76
2022/10/29 10:21:26;;;;;;;13.80;5.90;;;;;;;16.45;45.07;94897.44;5065514;28;20021;-76
2022/10/29 10:23:53;;;;;;;12.30;4.75;;;;;;;16.55;45.51;94888.97;5065390;28;20051;-76
2022/10/29 10:26:29;;;;;;;14.80;4.65;;;;;;;16.66;44.49;94889.38;5065320;28;20369;-76
2022/10/29 10:29:10;;;;;;;11.25;3.78;;;;;;;16.72;44.04;94881.91;5065213;28;20048;-77
2022/10/29 10:31:36;;;;;;;10.20;3.47;;;;;;;16.78;44.03;94875.22;5065173;28;20315;-77
2022/10/29 10:34:12;;;;;;;16.92;3.78;;;;;;;16.80;44.63;94871.06;5064846;28;20103;-77
2022/10/29 10:36:41;;;;;;;16.05;5.38;;;;;;;16.86;44.38;94866.31;5063994;28;20033;-76
2022/10/29 10:39:29;;;;;;;15.23;6.93;;;;;;;17.00;44.56;94868.75;5063858;28;20192;-76
2022/10/29 10:41:58;;;;;;;13.48;4.07;;;;;;;17.23;44.42;94863.81;5064966;28;20044;-76
2022/10/29 10:44:25;;;;;;;7.55;4.20;;;;;;;17.40;43.87;94860.16;5064838;28;20021;-77
2022/10/29 10:46:53;;;;;;;8.23;3.25;;;;;;;17.54;42.30;94857.97;5063541;28;20078;-76
2022/10/29 10:49:30;;;;;;;7.88;3.83;;;;;;;17.64;42.49;94859.44;5064648;28;20029;-76
2022/10/29 10:51:58;;;;;;;7.30;3.90;;;;;;;17.74;42.08;94850.94;5064950;28;20032;-76
2022/10/29 10:54:28;;;;;;;12.10;4.40;;;;;;;17.84;42.38;94847.84;5064587;28;20025;-76
2022/10/29 10:57:03;;;;;;;11.30;3.85;;;;;;;18.00;43.27;94852.59;5064950;28;20028;-76
2022/10/29 10:59:43;;;;;;;12.98;4.43;;;;;;;18.15;42.69;94843.81;5063611;28;20204;-77
2022/10/29 11:02:40;;;;;;;7.25;3.65;;;;;;;18.30;41.26;94838.88;5064535;28;20310;-77
2022/10/29 11:05:20;;;;;;;10.88;3.08;;;;;;;18.39;40.78;94837.63;5063801;28;20056;-77
2022/10/29 11:08:09;;;;;;;12.80;2.72;;;;;;;18.45;39.89;94830.09;5064622;28;20025;-77
2022/10/29 11:11:02;;;;;;;7.70;3.10;;;;;;;18.38;40.03;94829.91;5064607;28;20227;-77
2022/10/29 11:13:31;;;;;;;5.45;3.15;;;;;;;18.48;38.96;94817.81;5064475;28;20033;-77
2022/10/29 11:16:19;;;;;;;10.52;3.10;;;;;;;18.50;38.48;94816.38;5064457;28;20039;-77
2022/10/29 11:19:09;;;;;;;7.95;2.70;;;;;;;18.49;38.94;94812.09;5057479;28;20040;-77
2022/10/29 11:21:52;;;;;;;5.35;2.50;;;;;;;18.58;39.24;94804.66;5064119;28;20111;-77
2022/10/29 11:24:37;;;;;;;4.20;1.63;;;;;;;18.67;35.73;94801.06;5063662;28;20085;-77
2022/10/29 11:27:20;;;;;;;5.07;1.85;;;;;;;18.80;36.85;94797.97;5064174;28;20024;-77
2022/10/29 11:30:05;;;;;;;5.15;2.20;;;;;;;18.92;36.10;94804.50;5063850;28;20036;-77
2022/10/29 11:32:42;;;;;;;6.40;2.75;;;;;;;18.88;37.34;94792.78;5063663;28;20267;-77
2022/10/29 11:35:12;;;;;;;13.43;2.40;;;;;;;18.88;37.15;94788.19;5063958;28;20059;-77
2022/10/29 11:37:52;;;;;;;10.05;2.20;;;;;;;18.98;37.45;94776.09;5063906;28;20112;-78
2022/10/29 11:40:44;;;;;;;6.60;2.40;;;;;;;19.15;38.24;94780.41;5063793;28;20284;-77
2022/10/29 11:43:17;;;;;;;4.85;2.38;;;;;;;19.28;36.99;94773.06;5063767;28;20218;-77
2022/10/29 11:46:13;;;;;;;6.88;1.92;;;;;;;19.41;36.50;94772.63;5063556;28;20044;-77
2022/10/29 11:48:53;;;;;;;6.18;1.92;;;;;;;19.54;35.78;94775.25;5063659;28;20021;-77